Time;durP1;ratioP1;P1;durP2;ratioP2;P2;SDS_P1;SDS_P2;PMS_P1;PMS_P2;Temp;Humidity;BMP_temperature;BMP_pressure;BME280_temperature;BME280_humidity;BME280_pressure;Samples;Min_cycle;Max_cycle;Signal;HPM_P1;HPM_P2
2021/12/15 00:00:25;;;;;;;195.95;42.67;;;10.90;95.00;;;;;;5053379;28;20604;-84
2021/12/15 00:02:52;;;;;;;184.15;41.03;;;10.90;95.10;;;;;;5048836;28;20060;-84
2021/12/15 00:05:23;;;;;;;193.55;41.80;;;10.90;95.10;;;;;;5055483;28;20061;-84
2021/12/15 00:07:52;;;;;;;196.23;41.35;;;10.90;95.10;;;;;;5051475;28;20053;-84
2021/12/15 00:10:20;;;;;;;202.93;41.40;;;10.90;95.10;;;;;;5052437;28;20046;-84
2021/12/15 00:12:47;;;;;;;193.60;42.03;;;10.90;95.10;;;;;;5033060;28;20090;-84
2021/12/15 00:15:12;;;;;;;192.38;41.25;;;10.90;95.10;;;;;;5051702;28;20559;-84
2021/12/15 00:17:38;;;;;;;195.65;43.28;;;10.90;95.10;;;;;;5052101;28;20072;-83
2021/12/15 00:20:09;;;;;;;195.52;42.60;;;10.90;95.10;;;;;;5051615;28;20140;-84
2021/12/15 00:22:35;;;;;;;201.38;44.58;;;10.90;95.10;;;;;;5047327;28;20093;-83
2021/12/15 00:25:04;;;;;;;213.85;42.38;;;10.90;95.10;;;;;;5071318;28;20036;-84
2021/12/15 00:27:29;;;;;;;202.13;42.65;;;10.90;95.10;;;;;;5052496;28;20145;-84
2021/12/15 00:29:55;;;;;;;200.48;43.17;;;11.00;95.10;;;;;;5037903;28;20624;-83
2021/12/15 00:32:21;;;;;;;200.18;44.65;;;10.90;95.10;;;;;;5031101;28;20112;-84
2021/12/15 00:34:48;;;;;;;187.68;43.65;;;10.90;95.10;;;;;;5051288;28;20408;-83
2021/12/15 00:37:14;;;;;;;195.88;43.38;;;10.90;95.10;;;;;;5031036;28;20069;-84
2021/12/15 00:39:39;;;;;;;225.93;44.42;;;10.90;95.10;;;;;;5037238;28;20057;-84
2021/12/15 00:42:06;;;;;;;200.80;43.03;;;11.00;95.10;;;;;;5051527;28;20053;-85
2021/12/15 00:44:31;;;;;;;209.63;43.95;;;11.00;95.10;;;;;;5046205;28;20046;-84
2021/12/15 00:46:57;;;;;;;208.60;43.05;;;11.00;95.10;;;;;;5053363;28;20228;-84
2021/12/15 00:49:24;;;;;;;204.95;43.47;;;10.90;95.10;;;;;;5037415;28;20066;-84
2021/12/15 00:51:50;;;;;;;206.15;43.55;;;11.00;95.10;;;;;;5054022;28;20042;-83
2021/12/15 00:54:16;;;;;;;224.57;43.20;;;11.00;95.10;;;;;;5051012;28;20080;-84
2021/12/15 00:56:42;;;;;;;209.02;42.00;;;11.00;95.10;;;;;;5053353;28;20061;-84
2021/12/15 00:59:09;;;;;;;207.05;42.30;;;11.00;95.10;;;;;;5048380;28;20074;-84
2021/12/15 01:01:37;;;;;;;217.10;44.13;;;11.00;95.10;;;;;;5035636;28;20405;-84
2021/12/15 01:04:04;;;;;;;210.43;43.50;;;11.00;95.10;;;;;;5034940;28;20081;-84
2021/12/15 01:06:30;;;;;;;208.40;44.33;;;11.00;95.10;;;;;;5050264;28;20099;-85
2021/12/15 01:09:00;;;;;;;201.90;43.03;;;11.00;95.10;;;;;;5052031;28;20552;-85
2021/12/15 01:20:21;;;;;;;206.27;42.22;;;11.00;95.10;;;;;;5065197;28;20079;-84
2021/12/15 01:22:49;;;;;;;223.02;42.40;;;11.00;95.10;;;;;;5050367;28;20082;-84
2021/12/15 01:25:30;;;;;;;216.88;43.30;;;11.00;95.10;;;;;;5050617;28;20466;-84
2021/12/15 01:27:56;;;;;;;202.80;42.05;;;11.00;95.10;;;;;;5069997;28;20050;-84
2021/12/15 01:30:30;;;;;;;226.05;41.97;;;11.00;95.50;;;;;;5036253;28;20055;-84
2021/12/15 01:32:58;;;;;;;224.15;43.78;;;11.00;95.10;;;;;;5060944;28;20463;-84
2021/12/15 01:35:25;;;;;;;227.40;44.95;;;11.00;95.10;;;;;;5035658;28;20112;-84
2021/12/15 01:37:52;;;;;;;215.20;43.55;;;11.00;95.10;;;;;;5032783;28;20072;-85
2021/12/15 01:40:35;;;;;;;227.45;42.85;;;11.00;95.10;;;;;;5049379;28;20450;-84
2021/12/15 01:43:18;;;;;;;211.95;44.22;;;11.00;95.20;;;;;;5056462;28;20494;-84
2021/12/15 01:48:34;;;;;;;232.18;44.83;;;11.00;95.10;;;;;;5060747;28;20008;-84
2021/12/15 01:51:02;;;;;;;230.20;44.70;;;11.00;95.00;;;;;;5043774;28;20049;-84
2021/12/15 01:53:28;;;;;;;234.13;45.97;;;11.00;95.00;;;;;;5042362;28;20047;-84
2021/12/15 01:55:54;;;;;;;225.45;43.08;;;11.00;95.00;;;;;;5026891;28;20563;-84
2021/12/15 01:58:20;;;;;;;216.93;44.60;;;11.00;95.10;;;;;;5025457;28;20176;-84
2021/12/15 02:00:51;;;;;;;224.88;43.60;;;11.00;95.10;;;;;;5044131;28;20092;-84
2021/12/15 02:03:17;;;;;;;234.38;44.75;;;11.00;95.10;;;;;;5042617;28;20051;-84
2021/12/15 02:05:43;;;;;;;243.80;44.38;;;11.00;95.10;;;;;;5044289;28;20046;-85
2021/12/15 02:08:12;;;;;;;217.93;42.53;;;11.00;95.10;;;;;;5042621;28;20045;-85
2021/12/15 02:10:39;;;;;;;234.90;44.83;;;11.00;95.10;;;;;;5045567;28;20425;-84
2021/12/15 02:13:09;;;;;;;253.20;44.53;;;11.00;95.10;;;;;;5027179;28;20057;-85
2021/12/15 02:15:42;;;;;;;224.68;42.65;;;11.00;95.10;;;;;;5044880;28;20137;-84
2021/12/15 02:18:11;;;;;;;222.93;41.15;;;11.00;95.10;;;;;;5049476;28;20077;-85
2021/12/15 02:20:40;;;;;;;237.68;43.72;;;11.00;95.10;;;;;;5048270;28;20050;-84
2021/12/15 02:23:10;;;;;;;242.05;43.47;;;11.00;95.10;;;;;;5049951;28;20486;-84
2021/12/15 02:25:36;;;;;;;237.88;41.70;;;11.00;95.10;;;;;;5048420;28;20559;-84
2021/12/15 02:28:07;;;;;;;250.65;41.72;;;11.00;95.10;;;;;;5046817;28;20281;-84
2021/12/15 02:38:18;;;;;;;235.52;41.10;;;10.90;95.10;;;;;;5065527;28;20075;-84
2021/12/15 02:40:45;;;;;;;244.15;42.25;;;11.00;95.10;;;;;;5046879;28;20396;-84
2021/12/15 02:43:11;;;;;;;245.32;43.83;;;10.90;95.00;;;;;;5049079;28;20044;-84
2021/12/15 02:45:37;;;;;;;241.30;44.88;;;10.90;95.10;;;;;;5031804;28;20049;-84
2021/12/15 02:48:03;;;;;;;241.93;43.25;;;10.90;95.10;;;;;;5051327;28;20511;-84
2021/12/15 02:50:30;;;;;;;257.30;45.30;;;10.90;95.10;;;;;;5030781;28;20504;-83
2021/12/15 02:52:58;;;;;;;254.27;45.08;;;10.90;95.10;;;;;;5044608;28;20081;-84
2021/12/15 02:55:24;;;;;;;261.48;45.13;;;10.90;95.10;;;;;;5030678;28;20141;-84
2021/12/15 02:57:50;;;;;;;258.27;45.22;;;10.90;95.10;;;;;;5016890;28;20153;-84
2021/12/15 03:00:35;;;;;;;252.73;45.10;;;10.90;95.10;;;;;;5049309;28;20505;-84
2021/12/15 03:03:55;;;;;;;244.45;44.45;;;10.90;95.10;;;;;;5049007;28;20036;-84
2021/12/15 03:06:04;;;;;;;;;;;10.90;95.10;;;;;;5046180;28;20517;-84
2021/12/15 03:16:47;;;;;;;264.33;44.97;;;10.90;95.00;;;;;;5062224;28;20549;-84
2021/12/15 03:19:13;;;;;;;281.38;47.42;;;10.90;95.10;;;;;;5046554;28;20076;-83
2021/12/15 03:21:40;;;;;;;270.85;46.05;;;10.90;95.10;;;;;;5034337;28;20045;-83
2021/12/15 03:24:17;;;;;;;260.98;46.72;;;10.90;95.00;;;;;;5046650;28;20050;-84
2021/12/15 03:26:54;;;;;;;271.38;47.33;;;10.90;95.10;;;;;;5050530;28;20085;-83
2021/12/15 03:38:12;;;;;;;277.77;51.95;;;11.00;95.10;;;;;;5055533;28;20077;-83
2021/12/15 03:40:40;;;;;;;263.60;47.70;;;11.00;95.00;;;;;;5028687;28;20053;-83
2021/12/15 03:43:13;;;;;;;247.82;47.00;;;10.90;95.00;;;;;;5050069;28;20049;-83
2021/12/15 03:49:08;;;;;;;262.33;46.85;;;10.90;95.10;;;;;;5007308;28;20143;-83
2021/12/15 03:52:14;;;;;;;239.55;47.17;;;10.90;95.00;;;;;;5038153;28;20048;-83
2021/12/15 03:54:49;;;;;;;254.60;46.85;;;10.90;95.00;;;;;;4986615;28;20050;-83
2021/12/15 03:57:16;;;;;;;255.07;48.15;;;10.90;95.00;;;;;;5043956;28;20069;-83
2021/12/15 03:59:44;;;;;;;236.73;48.38;;;10.90;95.00;;;;;;5054690;28;20184;-84
2021/12/15 04:02:17;;;;;;;248.05;47.17;;;10.90;95.00;;;;;;5049626;28;20050;-83
2021/12/15 04:04:53;;;;;;;231.65;48.60;;;11.00;95.00;;;;;;5039712;28;20133;-84
2021/12/15 04:07:57;;;;;;;249.82;47.67;;;11.00;95.00;;;;;;5038528;28;20061;-84
2021/12/15 04:10:26;;;;;;;264.60;49.20;;;10.90;95.00;;;;;;5050238;28;20507;-84
2021/12/15 04:12:52;;;;;;;247.77;49.38;;;11.00;95.00;;;;;;5039999;28;20147;-84
2021/12/15 04:15:42;;;;;;;240.90;47.10;;;11.00;95.00;;;;;;5038711;28;20578;-83
2021/12/15 04:18:16;;;;;;;225.30;48.30;;;11.00;95.00;;;;;;5069866;28;20082;-83
2021/12/15 04:21:05;;;;;;;246.63;47.42;;;11.00;95.00;;;;;;5043335;28;20108;-83
2021/12/15 04:23:31;;;;;;;236.25;50.08;;;11.00;94.90;;;;;;5049579;28;20052;-83
2021/12/15 04:25:58;;;;;;;239.63;48.28;;;11.00;94.90;;;;;;5051085;28;20095;-83
2021/12/15 04:28:34;;;;;;;245.38;49.47;;;11.00;94.90;;;;;;5053099;28;20048;-83
2021/12/15 04:31:04;;;;;;;246.93;50.17;;;11.00;94.90;;;;;;5051584;28;20049;-83
2021/12/15 04:33:44;;;;;;;245.05;50.05;;;11.00;94.90;;;;;;5050503;28;20046;-83
2021/12/15 04:36:12;;;;;;;245.65;50.47;;;11.00;94.90;;;;;;5049703;28;20568;-83
2021/12/15 04:38:39;;;;;;;236.38;47.35;;;11.00;94.90;;;;;;5053570;28;20106;-83
2021/12/15 04:41:10;;;;;;;230.35;48.67;;;10.90;94.80;;;;;;5021382;28;20566;-83
2021/12/15 04:43:40;;;;;;;235.38;49.45;;;10.90;94.80;;;;;;5035160;28;20149;-83
2021/12/15 04:46:07;;;;;;;231.80;51.28;;;10.90;94.90;;;;;;5054265;28;20445;-83
2021/12/15 04:48:34;;;;;;;237.35;50.33;;;10.90;94.90;;;;;;5046637;28;20055;-84
2021/12/15 04:51:00;;;;;;;216.73;49.28;;;10.90;94.80;;;;;;5021089;28;20407;-84
2021/12/15 04:53:26;;;;;;;236.57;49.80;;;10.90;94.80;;;;;;5055917;28;20049;-83
2021/12/15 04:55:52;;;;;;;231.02;51.10;;;10.90;94.80;;;;;;5073122;28;20037;-83
2021/12/15 04:58:18;;;;;;;230.38;50.50;;;10.90;94.80;;;;;;5034814;28;20073;-84
2021/12/15 05:00:54;;;;;;;239.52;51.55;;;10.90;94.80;;;;;;5054463;28;20139;-84
2021/12/15 05:03:20;;;;;;;230.43;50.80;;;10.90;94.80;;;;;;5052838;28;20484;-84
2021/12/15 05:05:47;;;;;;;230.55;51.10;;;10.90;94.80;;;;;;5032261;28;20451;-83
2021/12/15 05:08:13;;;;;;;219.85;51.40;;;10.90;94.80;;;;;;5056020;28;20058;-87
2021/12/15 05:10:39;;;;;;;225.25;49.92;;;10.90;94.80;;;;;;5071652;28;20535;-86
2021/12/15 05:13:06;;;;;;;228.43;51.03;;;10.90;94.80;;;;;;5053686;28;20069;-84
2021/12/15 05:15:33;;;;;;;236.82;51.42;;;10.90;94.80;;;;;;5037025;28;20524;-85
2021/12/15 05:17:59;;;;;;;237.02;50.97;;;10.90;94.80;;;;;;5041039;28;20074;-86
2021/12/15 05:20:26;;;;;;;240.95;52.50;;;10.90;94.70;;;;;;5052674;28;20530;-86
2021/12/15 05:22:54;;;;;;;228.95;50.97;;;10.90;94.80;;;;;;5054501;28;20058;-82
2021/12/15 05:25:20;;;;;;;228.32;52.53;;;10.90;94.80;;;;;;5051218;28;20044;-85
2021/12/15 05:27:45;;;;;;;230.07;52.50;;;10.90;94.80;;;;;;5049084;28;20047;-83
2021/12/15 05:30:30;;;;;;;223.57;52.38;;;10.90;94.70;;;;;;5041974;28;20057;-87
2021/12/15 05:32:55;;;;;;;234.95;54.92;;;10.90;94.70;;;;;;5053089;28;20977;-85
2021/12/15 05:35:24;;;;;;;219.13;53.70;;;10.90;94.70;;;;;;5037786;28;20054;-85
2021/12/15 05:37:52;;;;;;;202.30;48.88;;;10.90;94.70;;;;;;5020160;28;20089;-85
2021/12/15 05:40:18;;;;;;;216.05;51.63;;;10.90;94.70;;;;;;5052274;28;20068;-85
2021/12/15 05:42:44;;;;;;;220.07;51.40;;;10.90;94.70;;;;;;5018877;28;20062;-83
2021/12/15 05:45:12;;;;;;;221.57;50.25;;;10.90;94.70;;;;;;5052832;28;20057;-84
2021/12/15 05:47:37;;;;;;;221.05;51.63;;;10.90;94.80;;;;;;5038191;28;20054;-84
2021/12/15 05:50:07;;;;;;;216.43;52.80;;;10.90;94.70;;;;;;5033947;28;20066;-82
2021/12/15 05:52:33;;;;;;;227.93;52.53;;;10.90;94.70;;;;;;5050735;28;20048;-81
2021/12/15 05:54:59;;;;;;;221.52;53.03;;;10.90;94.70;;;;;;5050679;28;20097;-80
2021/12/15 05:57:25;;;;;;;195.68;49.47;;;10.90;94.70;;;;;;5051961;28;20061;-80
2021/12/15 05:59:50;;;;;;;218.40;51.08;;;10.90;94.70;;;;;;5049286;28;20109;-79
2021/12/15 06:02:16;;;;;;;202.65;48.22;;;10.90;94.70;;;;;;5047630;28;20140;-79
2021/12/15 06:04:42;;;;;;;215.38;49.70;;;10.90;94.70;;;;;;5064145;28;20525;-82
2021/12/15 06:07:08;;;;;;;199.93;50.55;;;10.90;95.10;;;;;;5048423;28;20455;-82
2021/12/15 06:09:34;;;;;;;214.18;50.35;;;10.90;94.70;;;;;;5069934;28;20057;-82
2021/12/15 06:12:01;;;;;;;214.93;51.65;;;10.90;94.70;;;;;;5049040;28;20217;-82
2021/12/15 06:14:28;;;;;;;222.07;52.88;;;10.90;94.70;;;;;;5020850;28;20050;-82
2021/12/15 06:17:07;;;;;;;207.52;50.15;;;10.90;94.70;;;;;;5063741;28;20599;-82
2021/12/15 06:19:33;;;;;;;210.63;51.25;;;10.90;94.70;;;;;;5057301;28;20046;-82
2021/12/15 06:21:59;;;;;;;193.35;49.17;;;10.90;94.70;;;;;;5032985;28;20456;-82
2021/12/15 06:24:25;;;;;;;206.52;49.20;;;10.90;94.70;;;;;;5049110;28;20061;-81
2021/12/15 06:26:51;;;;;;;201.32;50.25;;;10.90;94.70;;;;;;5041871;28;20065;-82
2021/12/15 06:29:17;;;;;;;217.95;50.33;;;10.90;94.60;;;;;;5047205;28;20053;-81
2021/12/15 06:31:43;;;;;;;200.05;48.10;;;10.90;94.60;;;;;;5048307;28;20052;-80
2021/12/15 06:34:08;;;;;;;210.25;50.10;;;10.90;94.60;;;;;;5031569;28;20506;-79
2021/12/15 06:36:34;;;;;;;212.98;50.47;;;10.90;94.60;;;;;;5066274;28;20052;-80
2021/12/15 06:39:03;;;;;;;206.70;49.50;;;10.90;94.60;;;;;;5048668;28;20408;-81
2021/12/15 06:41:28;;;;;;;201.23;49.03;;;10.90;94.70;;;;;;5064598;28;20082;-81
2021/12/15 06:43:57;;;;;;;201.73;47.75;;;10.90;94.70;;;;;;5051733;28;20054;-81
2021/12/15 06:59:54;;;;;;;192.57;43.65;;;10.90;94.60;;;;;;5065778;28;20106;-81
2021/12/15 07:02:20;;;;;;;189.60;45.65;;;10.90;94.60;;;;;;5040735;28;20046;-80
2021/12/15 07:04:45;;;;;;;185.80;45.90;;;10.90;94.60;;;;;;5050207;28;20061;-81
2021/12/15 07:07:12;;;;;;;189.25;44.90;;;10.90;94.60;;;;;;5051433;28;20429;-80
2021/12/15 07:09:37;;;;;;;180.23;42.97;;;10.90;94.60;;;;;;5051092;28;20418;-81
2021/12/15 07:12:04;;;;;;;186.80;46.10;;;10.90;94.70;;;;;;5047992;28;20054;-81
2021/12/15 07:14:31;;;;;;;169.35;43.55;;;10.90;94.70;;;;;;5052309;28;20455;-80
2021/12/15 07:16:58;;;;;;;173.23;43.58;;;10.90;94.70;;;;;;5050227;28;20106;-82
2021/12/15 07:22:14;;;;;;;166.05;44.35;;;11.00;94.70;;;;;;5048233;28;20471;-81
2021/12/15 07:24:40;;;;;;;184.00;43.80;;;10.90;94.70;;;;;;5036107;28;20047;-81
2021/12/15 07:27:07;;;;;;;170.57;44.40;;;10.90;94.70;;;;;;5052619;28;20057;-82
2021/12/15 07:29:35;;;;;;;181.02;42.05;;;10.90;94.60;;;;;;5069873;28;20516;-81
2021/12/15 07:32:02;;;;;;;165.15;42.33;;;10.90;94.60;;;;;;5034543;28;20077;-81
2021/12/15 07:34:28;;;;;;;171.18;43.60;;;10.90;94.60;;;;;;5048454;28;20057;-81
2021/12/15 07:36:54;;;;;;;165.85;42.35;;;10.90;94.60;;;;;;5072262;28;20071;-82
2021/12/15 07:39:20;;;;;;;172.25;42.03;;;10.90;94.70;;;;;;5033247;28;20053;-81
2021/12/15 07:42:05;;;;;;;154.52;39.28;;;10.90;94.70;;;;;;5052648;28;20054;-81
2021/12/15 07:44:32;;;;;;;157.88;40.30;;;10.90;94.60;;;;;;5069827;28;20042;-81
2021/12/15 07:46:58;;;;;;;170.05;41.67;;;10.90;95.00;;;;;;5059811;28;20545;-81
2021/12/15 07:49:26;;;;;;;170.43;40.45;;;10.90;94.60;;;;;;5053594;28;20053;-81
2021/12/15 07:51:59;;;;;;;160.35;40.92;;;10.90;94.60;;;;;;5049098;28;20135;-81
2021/12/15 07:54:27;;;;;;;167.40;43.00;;;10.90;94.60;;;;;;5040162;28;20106;-81
2021/12/15 07:56:52;;;;;;;171.27;42.58;;;10.90;94.60;;;;;;5047686;28;20102;-81
2021/12/15 07:59:18;;;;;;;168.05;40.95;;;10.90;94.60;;;;;;5069411;28;20121;-81
2021/12/15 08:01:44;;;;;;;166.45;42.08;;;10.90;94.60;;;;;;5022810;28;20136;-81
2021/12/15 08:04:10;;;;;;;161.93;41.33;;;10.90;94.60;;;;;;5054458;28;20045;-82
2021/12/15 08:06:35;;;;;;;167.07;43.25;;;10.90;94.60;;;;;;5053020;28;20046;-82
2021/12/15 08:09:01;;;;;;;156.70;40.50;;;10.90;94.60;;;;;;5055288;28;20045;-82
2021/12/15 08:11:27;;;;;;;163.15;41.45;;;11.00;94.60;;;;;;5057742;28;20078;-82
2021/12/15 08:13:52;;;;;;;170.07;39.95;;;11.00;94.60;;;;;;5054686;28;20081;-82
2021/12/15 08:16:19;;;;;;;162.80;40.88;;;10.90;94.60;;;;;;5070894;28;20049;-82
2021/12/15 08:18:46;;;;;;;158.52;40.53;;;10.90;94.60;;;;;;5039078;28;20073;-82
2021/12/15 08:21:13;;;;;;;163.23;41.88;;;11.00;94.60;;;;;;5042548;28;20038;-82
2021/12/15 08:23:39;;;;;;;160.60;40.22;;;10.90;94.60;;;;;;5048890;28;20489;-82
2021/12/15 08:26:05;;;;;;;159.77;40.58;;;11.00;94.60;;;;;;5035655;28;20056;-81
2021/12/15 08:28:31;;;;;;;157.13;40.45;;;11.00;94.60;;;;;;5065623;28;20646;-81
2021/12/15 08:30:59;;;;;;;143.70;37.50;;;11.00;94.60;;;;;;5055676;28;20052;-82
2021/12/15 08:33:27;;;;;;;152.50;39.22;;;11.00;94.60;;;;;;5050190;28;20473;-81
2021/12/15 08:36:01;;;;;;;134.50;35.67;;;11.00;94.60;;;;;;5046031;28;20049;-80
2021/12/15 08:38:29;;;;;;;146.27;37.58;;;11.00;94.60;;;;;;5052304;28;20053;-80
2021/12/15 08:40:55;;;;;;;145.63;38.35;;;11.00;94.50;;;;;;5052806;28;20049;-80
2021/12/15 08:43:22;;;;;;;144.70;40.10;;;11.00;94.50;;;;;;5051808;28;20414;-80
2021/12/15 08:45:58;;;;;;;152.15;38.53;;;11.10;94.60;;;;;;5057157;28;20509;-80
2021/12/15 08:48:25;;;;;;;139.30;37.95;;;11.00;94.50;;;;;;5052771;28;20054;-80
2021/12/15 08:50:51;;;;;;;137.07;38.33;;;11.00;94.50;;;;;;5070670;28;20070;-80
2021/12/15 08:53:19;;;;;;;157.13;38.58;;;11.10;94.50;;;;;;5054373;28;20056;-80
2021/12/15 08:55:48;;;;;;;141.52;39.00;;;11.10;94.50;;;;;;5058024;28;20045;-80
2021/12/15 08:58:16;;;;;;;127.65;36.17;;;11.10;94.50;;;;;;5049907;28;20142;-80
2021/12/15 09:00:44;;;;;;;133.57;36.88;;;11.10;94.50;;;;;;5054053;28;20044;-80
2021/12/15 09:03:15;;;;;;;141.52;37.38;;;11.10;94.50;;;;;;5023121;28;20047;-80
2021/12/15 09:05:41;;;;;;;146.18;40.58;;;11.10;94.40;;;;;;5054503;28;20100;-79
2021/12/15 09:08:09;;;;;;;139.85;39.58;;;11.20;94.50;;;;;;5057682;28;20085;-80
2021/12/15 09:10:39;;;;;;;140.35;36.47;;;11.20;94.40;;;;;;5065759;28;20132;-81
2021/12/15 09:13:09;;;;;;;140.00;37.28;;;11.20;94.40;;;;;;5054710;28;20521;-83
2021/12/15 09:15:37;;;;;;;135.90;38.03;;;11.20;94.40;;;;;;5049766;28;20077;-82
2021/12/15 09:18:03;;;;;;;132.40;35.75;;;11.20;94.40;;;;;;5073474;28;20072;-82
2021/12/15 09:20:32;;;;;;;127.97;34.50;;;11.20;94.40;;;;;;5050899;28;20095;-82
2021/12/15 09:23:01;;;;;;;127.07;36.35;;;11.20;94.40;;;;;;5068007;28;20041;-82
2021/12/15 09:25:28;;;;;;;123.20;35.13;;;11.30;94.40;;;;;;5047526;28;20042;-82
2021/12/15 09:27:58;;;;;;;121.95;34.80;;;11.30;94.40;;;;;;5048144;28;20049;-82
2021/12/15 09:30:26;;;;;;;122.05;34.00;;;11.30;94.30;;;;;;5051405;28;20522;-82
2021/12/15 09:32:55;;;;;;;122.68;35.33;;;11.30;94.30;;;;;;5058177;28;20047;-82
2021/12/15 09:35:23;;;;;;;128.13;34.33;;;11.30;94.30;;;;;;5058023;28;20048;-82
2021/12/15 09:37:49;;;;;;;124.00;33.72;;;11.30;94.30;;;;;;5045120;28;20088;-82
2021/12/15 09:40:19;;;;;;;124.50;32.90;;;11.40;94.30;;;;;;5052529;28;20040;-82
2021/12/15 09:42:45;;;;;;;116.80;34.63;;;11.40;94.30;;;;;;5053345;28;20056;-82
2021/12/15 09:48:07;;;;;;;111.70;31.02;;;11.40;94.20;;;;;;5068919;28;20114;-82
2021/12/15 10:04:27;;;;;;;100.45;30.77;;;11.50;94.00;;;;;;5065066;28;20108;-82
2021/12/15 10:18:04;;;;;;;82.28;26.25;;;11.50;93.90;;;;;;5071735;28;20072;-82
2021/12/15 10:20:37;;;;;;;79.35;26.95;;;11.50;94.00;;;;;;5070821;28;20153;-82
2021/12/15 10:23:05;;;;;;;71.95;24.98;;;11.60;93.90;;;;;;5037946;28;20067;-82
2021/12/15 10:25:43;;;;;;;79.45;25.05;;;11.60;94.30;;;;;;5052558;28;20041;-82
2021/12/15 10:28:15;;;;;;;73.53;24.40;;;11.60;93.80;;;;;;5071265;28;20090;-82
2021/12/15 10:30:49;;;;;;;66.90;22.58;;;11.60;93.80;;;;;;5070463;28;20060;-84
2021/12/15 10:33:26;;;;;;;67.78;22.10;;;11.70;93.90;;;;;;5067780;28;20526;-82
2021/12/15 10:36:14;;;;;;;68.97;22.13;;;11.80;93.80;;;;;;5050100;28;20771;-83
2021/12/15 10:38:45;;;;;;;64.72;23.13;;;11.80;93.60;;;;;;5049621;28;20060;-82
2021/12/15 10:41:16;;;;;;;66.80;22.33;;;11.90;93.50;;;;;;5067122;28;20052;-83
2021/12/15 10:44:00;;;;;;;67.63;22.02;;;11.90;93.40;;;;;;5051188;28;20157;-83
2021/12/15 10:46:39;;;;;;;66.05;21.95;;;11.90;93.40;;;;;;5048283;28;20102;-82
2021/12/15 10:49:11;;;;;;;68.93;20.58;;;11.90;93.60;;;;;;5048318;28;20103;-83
2021/12/15 10:51:50;;;;;;;66.82;20.95;;;12.00;93.30;;;;;;5067927;28;20052;-83
2021/12/15 10:54:34;;;;;;;69.53;23.20;;;12.00;93.30;;;;;;5061626;28;20512;-83
2021/12/15 10:57:01;;;;;;;69.32;22.98;;;12.00;93.30;;;;;;5051002;28;20071;-82
2021/12/15 10:59:30;;;;;;;74.75;24.08;;;12.00;93.20;;;;;;5068932;28;20072;-83
2021/12/15 11:01:58;;;;;;;82.65;24.95;;;12.00;93.20;;;;;;5061732;28;20041;-83
2021/12/15 11:04:32;;;;;;;72.15;22.92;;;12.00;93.20;;;;;;5066221;28;20045;-82
2021/12/15 11:07:02;;;;;;;77.80;24.05;;;12.00;93.20;;;;;;5047635;28;20041;-82
2021/12/15 11:09:37;;;;;;;89.60;24.83;;;12.10;93.20;;;;;;5054053;28;20035;-85
2021/12/15 11:12:44;;;;;;;72.25;22.92;;;12.10;93.10;;;;;;5060169;28;20046;-83
2021/12/15 11:15:21;;;;;;;73.72;22.58;;;12.10;93.10;;;;;;5038583;28;20141;-81
2021/12/15 11:17:53;;;;;;;73.63;23.48;;;12.10;93.00;;;;;;5059611;28;20437;-83
2021/12/15 11:20:27;;;;;;;69.07;22.50;;;12.10;93.00;;;;;;5078722;28;20059;-83
2021/12/15 11:23:04;;;;;;;70.75;23.65;;;12.10;93.00;;;;;;5076431;28;20040;-83
2021/12/15 11:25:55;;;;;;;71.18;24.42;;;12.10;92.90;;;;;;5077124;28;20044;-83
2021/12/15 11:28:30;;;;;;;65.82;23.85;;;12.10;92.80;;;;;;5069831;28;20050;-82
2021/12/15 11:31:22;;;;;;;74.63;22.83;;;12.00;92.80;;;;;;5051704;28;20059;-81
2021/12/15 11:33:57;;;;;;;71.18;22.35;;;12.10;92.90;;;;;;5050769;28;20453;-82
2021/12/15 11:36:44;;;;;;;65.53;20.35;;;12.00;92.90;;;;;;5053519;28;20040;-81
2021/12/15 11:39:17;;;;;;;57.05;18.15;;;12.00;93.20;;;;;;5048882;28;20393;-81
2021/12/15 11:41:52;;;;;;;53.03;18.65;;;12.00;92.90;;;;;;5069583;28;20048;-81
2021/12/15 11:44:20;;;;;;;59.22;18.42;;;12.10;92.90;;;;;;5051101;28;20036;-81
2021/12/15 11:46:58;;;;;;;52.35;17.30;;;12.00;92.90;;;;;;5049118;28;20052;-81
2021/12/15 11:49:29;;;;;;;50.30;16.13;;;12.10;92.90;;;;;;5053788;28;20106;-82
2021/12/15 11:51:56;;;;;;;44.55;15.63;;;12.10;92.80;;;;;;5046699;28;20062;-82
2021/12/15 11:54:33;;;;;;;47.00;14.98;;;12.10;92.80;;;;;;5070219;28;20127;-81
2021/12/15 11:57:00;;;;;;;46.88;15.15;;;12.10;92.70;;;;;;5066494;28;20048;-82
2021/12/15 11:59:34;;;;;;;48.85;15.07;;;12.20;92.70;;;;;;5069763;28;20084;-81
2021/12/15 12:02:08;;;;;;;44.22;13.40;;;12.20;92.60;;;;;;5050630;28;20399;-82
2021/12/15 12:04:46;;;;;;;36.42;11.48;;;12.20;92.60;;;;;;5048945;28;20135;-82
2021/12/15 12:07:33;;;;;;;37.75;12.40;;;12.20;92.50;;;;;;5052339;28;20051;-82
2021/12/15 12:10:00;;;;;;;33.22;11.43;;;12.20;92.40;;;;;;5055299;28;20053;-82
2021/12/15 12:12:34;;;;;;;40.90;12.10;;;12.20;92.40;;;;;;5051709;28;20462;-82
2021/12/15 12:15:01;;;;;;;31.63;10.52;;;12.20;92.40;;;;;;5049175;28;20039;-82
2021/12/15 12:17:34;;;;;;;27.95;11.38;;;12.20;92.40;;;;;;5049090;28;20065;-81
2021/12/15 12:20:24;;;;;;;31.20;10.77;;;12.20;92.30;;;;;;5047367;28;20814;-81
2021/12/15 12:22:52;;;;;;;35.53;10.45;;;12.20;92.20;;;;;;5054008;28;20049;-82
2021/12/15 12:25:25;;;;;;;34.42;11.40;;;12.20;92.20;;;;;;5053238;28;20039;-81
2021/12/15 12:27:53;;;;;;;31.00;10.38;;;12.20;92.10;;;;;;5069832;28;20043;-82
2021/12/15 12:30:28;;;;;;;31.40;11.13;;;12.20;92.10;;;;;;5053540;28;20097;-81
2021/12/15 12:32:55;;;;;;;33.60;10.82;;;12.20;92.00;;;;;;5054010;28;20047;-81
2021/12/15 12:35:25;;;;;;;31.52;10.15;;;12.20;92.00;;;;;;5048856;28;20072;-81
2021/12/15 12:38:14;;;;;;;24.77;10.75;;;12.30;92.00;;;;;;5055490;28;20070;-81
2021/12/15 12:41:03;;;;;;;31.83;10.18;;;12.30;91.80;;;;;;5048111;28;20508;-81
2021/12/15 12:43:36;;;;;;;37.38;9.98;;;12.30;91.80;;;;;;5067562;28;20492;-81
2021/12/15 12:46:37;;;;;;;35.42;10.50;;;12.30;91.70;;;;;;5050590;28;20062;-81
2021/12/15 13:00:52;;;;;;;35.83;10.30;;;12.20;91.70;;;;;;5070688;28;20194;-81
2021/12/15 13:03:30;;;;;;;27.08;9.30;;;12.20;91.70;;;;;;5032340;28;20098;-81
2021/12/15 13:06:16;;;;;;;31.60;9.95;;;12.10;91.70;;;;;;5068783;28;20058;-81
2021/12/15 13:08:47;;;;;;;29.88;10.30;;;12.10;91.70;;;;;;5068737;28;20121;-81
2021/12/15 13:11:24;;;;;;;25.48;8.80;;;12.20;91.60;;;;;;5071123;28;22018;-81
2021/12/15 13:14:17;;;;;;;29.08;9.63;;;12.10;91.60;;;;;;5052783;28;20132;-81
2021/12/15 13:16:51;;;;;;;20.50;7.82;;;12.10;91.50;;;;;;5050633;28;20060;-82
2021/12/15 13:19:51;;;;;;;19.17;7.40;;;12.10;91.40;;;;;;5054571;28;20051;-84
2021/12/15 13:22:41;;;;;;;22.17;6.65;;;12.10;91.20;;;;;;5048613;28;20069;-82
2021/12/15 13:28:44;;;;;;;22.67;7.63;;;12.10;91.00;;;;;;4975409;28;20059;-82
2021/12/15 13:31:19;;;;;;;18.20;5.50;;;12.10;91.10;;;;;;5035134;28;20527;-82
2021/12/15 13:33:57;;;;;;;14.85;6.03;;;12.10;90.90;;;;;;5044250;28;20049;-82
2021/12/15 13:36:24;;;;;;;14.05;5.32;;;12.10;90.80;;;;;;5052189;28;20198;-82
2021/12/15 13:38:56;;;;;;;15.43;6.25;;;12.00;90.70;;;;;;5064823;28;20535;-82
2021/12/15 13:41:41;;;;;;;20.00;5.63;;;12.10;90.60;;;;;;5047497;28;20060;-81
2021/12/15 13:44:47;;;;;;;16.45;5.47;;;12.00;90.60;;;;;;5049909;28;20050;-82
2021/12/15 13:47:45;;;;;;;21.92;5.28;;;12.00;90.50;;;;;;4989461;28;20063;-81
2021/12/15 13:50:20;;;;;;;20.63;5.43;;;12.00;90.50;;;;;;5002293;28;20067;-82
2021/12/15 13:52:52;;;;;;;14.60;5.00;;;12.00;90.40;;;;;;4972377;28;20164;-82
2021/12/15 13:55:23;;;;;;;12.95;4.75;;;12.00;90.40;;;;;;4992974;28;20096;-82
2021/12/15 13:58:03;;;;;;;16.35;5.03;;;12.00;90.30;;;;;;5043571;28;20061;-82
2021/12/15 14:00:42;;;;;;;14.57;4.45;;;11.90;90.60;;;;;;5044734;28;20144;-82
2021/12/15 14:03:17;;;;;;;14.88;4.70;;;11.90;90.20;;;;;;5052022;28;20043;-82
2021/12/15 14:06:04;;;;;;;17.73;5.57;;;11.80;90.10;;;;;;5053734;28;20052;-82
2021/12/15 14:08:40;;;;;;;11.45;4.05;;;11.80;90.10;;;;;;5047091;28;20052;-82
2021/12/15 14:11:24;;;;;;;9.82;4.40;;;11.80;90.10;;;;;;5053849;28;20479;-82
2021/12/15 14:14:01;;;;;;;13.35;4.05;;;11.80;90.00;;;;;;5046529;28;20509;-82
2021/12/15 14:16:47;;;;;;;14.02;4.20;;;11.80;90.40;;;;;;5068107;28;20059;-82
2021/12/15 14:19:36;;;;;;;17.33;4.03;;;11.70;89.80;;;;;;5049786;28;20059;-82